Aurora, CO (80015)

12:54 AM MDT on August 22, 2014 (GMT -0600)
Pheasant Run | Change Station
CLOSE
Current Station
Personal Weather Station
Location: Aurora, CO
Elevation: 5761 ft
Nearby Weather Stations

Elev 5761 ft 39.63 °N, 104.80 °W | Updated 9 minutes ago

Mostly Cloudy
Mostly Cloudy
63.7 °F
Feels Like 63.7 °F
N
0.0
Wind Variable Wind from SE
Gusts 0.0 mph

Today
High -- | Low -- °F
--% Chance of Precip.
Yesterday
High -- | Low -- °F
Precip. -- in
6:18 AM 7:45 PM
Waning Crescent, 10% visible
Pressure 29.98 in
Visibility 10.0 miles
Clouds Mostly Cloudy 11000 ft
Mostly Cloudy 14000 ft
Dew Point 56 °F
Humidity 75%
Rainfall 0.00 in
Snow Depth Not available.
UV 0 out of 12
Pollen 9.70 out of 12
Ozone Good
PM2.5 Good
Flu Activity Not available.
METAR KAPA 220553Z 35003KT 10SM BKN110 BKN140 19/10 A3018 RMK AO2 SLP150 60000 T01890100 10272 20189 50003

More Conditions Fewer Conditions

Pressure 29.98 in
Visibility 10.0 miles
Clouds Mostly Cloudy 11000 ft
Mostly Cloudy 14000 ft
Dew Point 56 °F
Humidity 75%
Rainfall 0.00 in
Snow Depth Not available.
UV 0 out of 12
Pollen 9.70 out of 12
Ozone Good
PM2.5 Good
Flu Activity Not available.
METAR KAPA 220553Z 35003KT 10SM BKN110 BKN140 19/10 A3018 RMK AO2 SLP150 60000 T01890100 10272 20189 50003

More Conditions Fewer Conditions

Nowcast | as of 11:28 PM MDT on August 21, 2014

Scattered showers and a few thunderstorms will continue along tyhe Front Range until 1 am. Brief moderate rain and gusty winds to 35 mph will be possible with the . Elsewhere...light showers will move across the foothills. Rainfall amounts with these showers will be less than one tenth of an inch.

×

10-Day Weather Forecast

Almanac

Astronomy

Aug. 22, 2014 Rise Set
Actual Time 6:18 AM MDT 7:45 PM MDT
Civil Twilight 5:49 AM MDT 8:13 PM MDT
Nautical Twilight 5:15 AM MDT 8:47 PM MDT
Astronomical Twilight 4:39 AM MDT 9:23 PM MDT
Moon 3:43 AM MDT 5:55 PM MDT
Length of Visible Light 14h 23m
Length of Day
13h 27m
Tomorrow will be 2m 23s shorter.
Waning Crescent, 10% of the Moon is Illuminated
Today
Waning Crescent
Aug 25
New
Sep 2
First Quarter
Sep 8
Full
Sep 15
Last Quarter

Today's Extremes

State Highs State Lows

Community

WunderPhotos

Upload Photos

1,746,131 photos uploaded!

Nearby

Air Quality

  Air Quality AQ Index Pollutant
Yesterday Good
OZONE
Yesterday Good
PM10
Current Good
OZONE
Current Good
PM2.5
Thursday Moderate
OZONE
Thursday Good
PM2.5
Friday Good
OZONE
Friday Good
PM2.5

Snow Depth

Station Depth Elevation
Echo Lake 0 in 10600 ft
Niwot 0 in 9910 ft
University Camp 0 in 10300 ft
Glen Cove 0 in 11460 ft
Jackwhacker Gulch 0 in 10960 ft

Earthquake Activity

City Distance Mag. Time & Date
No recent earthquake activity has been reported nearby.
Minimum magnitude displayed is 2.5.

Coastal Water Temperatures

Place Temperature
No Stations Reporting

Nearby Weather Stations